Time;durP1;ratioP1;P1;durP2;ratioP2;P2;SDS_P1;SDS_P2;PMS_P1;PMS_P2;Temp;Humidity;BMP_temperature;BMP_pressure;BME280_temperature;BME280_humidity;BME280_pressure;Samples;Min_cycle;Max_cycle;Signal;HPM_P1;HPM_P2
2021/05/26 00:01:48;;;;;;;2.60;2.30;;;;;;;22.29;100.00;100986.88;4908032;29;20028;-75
2021/05/26 00:04:34;;;;;;;6.30;2.30;;;;;;;22.13;100.00;100989.66;4921151;29;20441;-75
2021/05/26 00:07:19;;;;;;;3.60;2.58;;;;;;;21.38;100.00;100982.63;4907734;29;20064;-74
2021/05/26 00:10:06;;;;;;;3.65;2.83;;;;;;;21.45;100.00;100991.97;4921669;29;20035;-75
2021/05/26 00:12:52;;;;;;;5.10;2.88;;;;;;;21.47;100.00;100988.28;4928967;29;20056;-75
2021/05/26 00:15:37;;;;;;;3.15;2.72;;;;;;;21.41;100.00;100987.75;4943093;29;20124;-74
2021/05/26 00:18:23;;;;;;;3.00;2.70;;;;;;;21.74;100.00;100984.00;4934921;29;20051;-75
2021/05/26 00:21:09;;;;;;;3.75;3.10;;;;;;;21.62;100.00;100992.69;4908707;29;20032;-74
2021/05/26 00:23:55;;;;;;;5.15;2.70;;;;;;;21.80;100.00;100988.13;4910497;29;20043;-73
2021/05/26 00:26:43;;;;;;;7.07;3.42;;;;;;;21.86;100.00;100996.63;4931088;29;20036;-73
2021/05/26 00:29:29;;;;;;;9.25;3.20;;;;;;;21.79;100.00;100997.94;4916899;29;20027;-73
2021/05/26 00:32:16;;;;;;;5.18;3.13;;;;;;;22.09;100.00;100993.44;4928538;29;20028;-73
2021/05/26 00:35:02;;;;;;;5.38;2.80;;;;;;;21.92;100.00;101001.63;4920788;29;20036;-74
2021/05/26 00:37:48;;;;;;;4.88;3.10;;;;;;;21.50;100.00;101005.91;4920573;29;20426;-74
2021/05/26 00:40:34;;;;;;;6.35;3.10;;;;;;;21.73;100.00;101006.31;4920840;29;20078;-74
2021/05/26 00:43:20;;;;;;;4.43;2.72;;;;;;;21.85;100.00;101005.59;4907149;29;20103;-74
2021/05/26 00:46:06;;;;;;;3.47;3.08;;;;;;;21.77;100.00;101015.84;4920531;29;20075;-74
2021/05/26 00:48:52;;;;;;;6.45;3.28;;;;;;;21.58;100.00;101001.81;4919914;29;20176;-74
2021/05/26 00:51:38;;;;;;;5.82;3.10;;;;;;;21.59;100.00;101003.56;4920239;29;20024;-74
2021/05/26 00:54:24;;;;;;;6.32;3.25;;;;;;;21.43;100.00;101002.75;4907093;29;20028;-74
2021/05/26 00:57:10;;;;;;;4.15;3.08;;;;;;;21.22;100.00;101005.75;4907648;29;20024;-74
2021/05/26 00:59:56;;;;;;;3.67;2.85;;;;;;;20.98;100.00;100997.31;4905845;29;20024;-74
2021/05/26 01:02:41;;;;;;;5.95;2.80;;;;;;;21.36;100.00;100996.03;4919916;29;20038;-75
2021/05/26 01:05:28;;;;;;;3.28;2.60;;;;;;;21.26;100.00;100988.66;4919486;29;20039;-74
2021/05/26 01:08:14;;;;;;;3.88;2.80;;;;;;;21.76;100.00;100994.59;4919889;29;20516;-74
2021/05/26 01:11:03;;;;;;;8.00;2.53;;;;;;;21.40;100.00;100996.69;4919762;29;20368;-75
2021/05/26 01:13:49;;;;;;;4.68;2.90;;;;;;;21.35;100.00;100990.78;4919554;29;20032;-75
2021/05/26 01:16:34;;;;;;;7.57;2.92;;;;;;;21.38;100.00;100993.28;4906709;29;20112;-74
2021/05/26 01:19:20;;;;;;;3.33;2.40;;;;;;;21.43;100.00;100993.88;4919480;29;20028;-75
2021/05/26 01:22:07;;;;;;;6.60;2.85;;;;;;;21.51;100.00;100989.81;4919309;29;20032;-74
2021/05/26 01:24:52;;;;;;;7.10;2.60;;;;;;;21.33;100.00;100985.53;4919285;29;20430;-74
2021/05/26 01:27:39;;;;;;;5.40;2.35;;;;;;;21.15;100.00;100978.59;4906312;29;20047;-74
2021/05/26 01:30:25;;;;;;;3.17;2.75;;;;;;;20.91;100.00;100981.75;4918988;29;20032;-75
2021/05/26 01:33:11;;;;;;;3.40;2.33;;;;;;;20.82;100.00;100983.09;4906588;29;20032;-74
2021/05/26 01:35:57;;;;;;;3.53;2.33;;;;;;;21.03;100.00;100976.63;4918969;29;20107;-75
2021/05/26 01:38:43;;;;;;;3.33;2.53;;;;;;;21.13;100.00;100971.66;4919382;29;20115;-74
2021/05/26 01:41:28;;;;;;;5.60;2.60;;;;;;;20.91;100.00;100977.31;4918793;29;20024;-75
2021/05/26 01:44:14;;;;;;;3.45;2.60;;;;;;;20.99;100.00;100980.41;4918374;29;20024;-75
2021/05/26 01:47:01;;;;;;;4.07;2.40;;;;;;;20.89;100.00;100987.16;4918721;29;20145;-75
2021/05/26 01:49:46;;;;;;;6.85;2.40;;;;;;;21.08;100.00;100982.56;4918946;29;20038;-75
2021/05/26 01:52:32;;;;;;;2.60;2.20;;;;;;;21.39;100.00;100990.53;4919293;29;20484;-75
2021/05/26 01:55:19;;;;;;;3.25;2.25;;;;;;;20.93;100.00;100991.38;4918684;29;20469;-75
2021/05/26 01:58:05;;;;;;;4.60;2.50;;;;;;;21.37;100.00;100986.22;4919320;29;20461;-74
2021/05/26 02:00:51;;;;;;;4.03;2.40;;;;;;;21.34;100.00;100995.25;4918641;29;20036;-75
2021/05/26 02:03:41;;;;;;;5.40;2.50;;;;;;;21.42;100.00;101000.16;4918923;29;20032;-75
2021/05/26 02:06:27;;;;;;;3.72;2.60;;;;;;;21.45;100.00;101000.81;4918578;29;20032;-75
2021/05/26 02:09:13;;;;;;;4.82;2.67;;;;;;;21.59;100.00;101006.25;4906291;29;20036;-75
2021/05/26 02:15:05;;;;;;;5.25;2.17;;;;;;;21.05;100.00;101017.34;4918736;29;20024;-75
2021/05/26 02:17:51;;;;;;;2.88;2.25;;;;;;;21.08;100.00;101021.66;4918140;29;20499;-75
2021/05/26 02:20:37;;;;;;;4.60;2.60;;;;;;;21.25;100.00;101018.88;4905669;29;20119;-75
2021/05/26 02:23:23;;;;;;;2.75;2.30;;;;;;;20.94;100.00;101018.91;4905220;29;20028;-75
2021/05/26 02:26:08;;;;;;;5.30;2.65;;;;;;;21.21;100.00;101026.22;4918815;29;20051;-75
2021/05/26 02:28:55;;;;;;;5.28;2.50;;;;;;;21.23;100.00;101029.66;4918246;29;20445;-75
2021/05/26 02:31:41;;;;;;;6.20;2.35;;;;;;;21.44;100.00;101025.78;4905358;29;20043;-75
2021/05/26 02:34:27;;;;;;;6.30;2.63;;;;;;;21.23;100.00;101034.13;4917583;29;20091;-75
2021/05/26 02:37:12;;;;;;;4.70;2.70;;;;;;;21.26;100.00;101034.78;4905174;29;20434;-75
2021/05/26 02:39:58;;;;;;;6.10;2.60;;;;;;;21.39;100.00;101042.97;4905224;29;20032;-75
2021/05/26 02:42:44;;;;;;;6.32;3.00;;;;;;;21.27;100.00;101043.66;4918020;29;20586;-75
2021/05/26 02:45:31;;;;;;;2.90;2.50;;;;;;;21.39;100.00;101054.50;4918377;29;20509;-75
2021/05/26 02:48:17;;;;;;;4.28;3.00;;;;;;;21.20;100.00;101064.47;4918972;29;20391;-75
2021/05/26 02:51:03;;;;;;;4.97;2.70;;;;;;;21.30;100.00;101070.16;4918394;29;20441;-75
2021/05/26 02:53:49;;;;;;;3.95;2.30;;;;;;;21.11;100.00;101078.31;4917614;29;20180;-75
2021/05/26 02:56:35;;;;;;;4.78;2.58;;;;;;;21.00;100.00;101078.03;4905466;29;20055;-75
2021/05/26 02:59:21;;;;;;;5.57;2.70;;;;;;;21.41;100.00;101083.72;4918011;29;20114;-75
2021/05/26 03:02:06;;;;;;;4.82;2.70;;;;;;;20.61;100.00;101080.13;4917799;29;20028;-74
2021/05/26 03:04:52;;;;;;;5.00;3.05;;;;;;;20.70;100.00;101090.28;4918398;29;20054;-74
2021/05/26 03:07:40;;;;;;;6.10;2.90;;;;;;;21.25;100.00;101086.41;4905210;29;20051;-75
2021/05/26 03:10:26;;;;;;;5.28;2.83;;;;;;;21.26;100.00;101082.78;4905278;29;20338;-75
2021/05/26 03:13:11;;;;;;;5.10;2.95;;;;;;;21.40;100.00;101084.69;4917652;29;20051;-75
2021/05/26 03:15:57;;;;;;;3.88;3.00;;;;;;;21.19;100.00;101093.88;4917991;29;20087;-75
2021/05/26 03:18:45;;;;;;;4.47;2.67;;;;;;;21.27;100.00;101097.84;4904476;29;20130;-75
2021/05/26 03:21:31;;;;;;;5.80;2.90;;;;;;;21.12;100.00;101104.00;4918318;29;20099;-75
2021/05/26 03:24:17;;;;;;;3.55;2.92;;;;;;;20.71;100.00;101101.81;4906910;29;20074;-75
2021/05/26 03:27:03;;;;;;;3.42;2.95;;;;;;;21.14;100.00;101096.78;4921875;29;20115;-74
2021/05/26 03:29:49;;;;;;;4.97;3.15;;;;;;;20.78;100.00;101104.06;4921342;29;20055;-75
2021/05/26 03:32:36;;;;;;;5.97;3.15;;;;;;;20.41;100.00;101098.94;4908511;29;20369;-75
2021/05/26 03:35:22;;;;;;;6.05;3.20;;;;;;;20.66;100.00;101104.69;4921489;29;20077;-74
2021/05/26 03:38:09;;;;;;;3.85;3.10;;;;;;;20.63;100.00;101109.34;4921775;29;20465;-75
2021/05/26 03:40:54;;;;;;;4.03;3.17;;;;;;;21.06;100.00;101112.31;4920780;29;20032;-75
2021/05/26 03:43:40;;;;;;;5.65;3.10;;;;;;;20.88;100.00;101102.63;4921074;29;20500;-75
2021/05/26 03:46:26;;;;;;;4.82;3.33;;;;;;;20.98;100.00;101111.88;4908511;29;20361;-75
2021/05/26 03:49:12;;;;;;;4.38;3.00;;;;;;;21.07;100.00;101110.53;4920866;29;20378;-75
2021/05/26 03:51:58;;;;;;;4.63;3.17;;;;;;;20.49;100.00;101111.88;4908438;29;20024;-75
2021/05/26 03:54:44;;;;;;;6.53;3.20;;;;;;;20.77;100.00;101109.50;4920888;29;20028;-75
2021/05/26 03:57:29;;;;;;;3.50;3.20;;;;;;;21.19;100.00;101105.41;4908367;29;20072;-75
2021/05/26 04:00:19;;;;;;;9.77;4.10;;;;;;;20.62;100.00;101119.13;4920791;29;20529;-75
2021/05/26 04:03:04;;;;;;;6.28;3.65;;;;;;;20.74;100.00;101115.81;4921165;29;20473;-75
2021/05/26 04:05:50;;;;;;;6.22;4.18;;;;;;;20.55;100.00;101108.88;4920816;29;20126;-74
2021/05/26 04:08:36;;;;;;;7.28;3.50;;;;;;;20.66;100.00;101110.03;4908253;29;20042;-75
2021/05/26 04:11:23;;;;;;;5.68;4.15;;;;;;;20.84;100.00;101108.19;4920390;29;20048;-75
2021/05/26 04:14:09;;;;;;;10.77;4.93;;;;;;;20.90;100.00;101102.56;4920427;29;20381;-75
2021/05/26 04:16:55;;;;;;;10.93;5.20;;;;;;;20.55;100.00;101112.41;4920726;29;20024;-75
2021/05/26 04:19:40;;;;;;;12.40;5.72;;;;;;;20.78;100.00;101127.19;4907503;29;20036;-74
2021/05/26 04:22:26;;;;;;;11.38;6.07;;;;;;;20.54;100.00;101126.66;4907478;29;20422;-75
2021/05/26 04:25:12;;;;;;;9.93;5.90;;;;;;;20.47;100.00;101129.72;4920268;29;20103;-74
2021/05/26 04:27:58;;;;;;;16.38;6.20;;;;;;;20.99;100.00;101139.41;4920070;29;20449;-75
2021/05/26 04:30:43;;;;;;;10.40;5.97;;;;;;;20.97;100.00;101144.81;4920252;29;20086;-75
2021/05/26 04:33:29;;;;;;;9.27;6.47;;;;;;;20.61;100.00;101157.34;4919837;29;20441;-75
2021/05/26 04:36:15;;;;;;;13.73;6.50;;;;;;;20.82;100.00;101158.88;4920285;29;20032;-75
2021/05/26 04:39:01;;;;;;;8.45;6.47;;;;;;;20.71;100.00;101165.72;4907339;29;20111;-75
2021/05/26 04:41:47;;;;;;;9.55;7.05;;;;;;;20.73;100.00;101158.53;4907350;29;20028;-75
2021/05/26 04:44:32;;;;;;;18.63;13.00;;;;;;;20.89;100.00;101170.09;4907394;29;20043;-75
2021/05/26 04:47:18;;;;;;;10.07;7.32;;;;;;;21.31;100.00;101168.72;4919911;29;20032;-75
2021/05/26 04:50:04;;;;;;;13.82;6.88;;;;;;;21.30;100.00;101187.44;4907064;29;20051;-76
2021/05/26 04:52:50;;;;;;;12.32;7.03;;;;;;;21.04;100.00;101188.84;4920362;29;20450;-76
2021/05/26 04:55:36;;;;;;;13.90;7.05;;;;;;;21.16;100.00;101195.31;4907015;29;20358;-75
2021/05/26 04:58:22;;;;;;;11.38;7.55;;;;;;;20.84;100.00;101185.44;4906973;29;20114;-75
2021/05/26 05:01:08;;;;;;;7.80;6.22;;;;;;;20.84;100.00;101196.97;4919711;29;20479;-76
2021/05/26 05:03:54;;;;;;;16.05;6.95;;;;;;;21.02;100.00;101198.69;4906765;29;20039;-75
2021/05/26 05:06:40;;;;;;;12.98;6.53;;;;;;;20.94;100.00;101206.22;4919547;29;20043;-75
2021/05/26 05:09:26;;;;;;;15.15;7.28;;;;;;;20.84;100.00;101212.09;4907242;29;20068;-76
2021/05/26 05:12:11;;;;;;;9.32;6.05;;;;;;;20.92;100.00;101207.25;4919190;29;20435;-76
2021/05/26 05:14:57;;;;;;;10.98;6.72;;;;;;;20.86;100.00;101204.88;4906781;29;20024;-75
2021/05/26 05:17:49;;;;;;;16.17;7.97;;;;;;;21.23;100.00;101218.03;4919963;29;20029;-74
2021/05/26 05:20:35;;;;;;;18.77;8.73;;;;;;;21.46;100.00;101215.00;4906995;29;20099;-74
2021/05/26 05:23:21;;;;;;;17.45;8.65;;;;;;;21.63;100.00;101218.47;4905993;29;20119;-74
2021/05/26 05:26:07;;;;;;;16.67;8.70;;;;;;;21.82;100.00;101223.69;4918765;29;20063;-75
2021/05/26 05:28:52;;;;;;;18.15;7.95;;;;;;;22.08;100.00;101221.25;4920024;29;20039;-74
2021/05/26 05:31:38;;;;;;;14.00;7.40;;;;;;;21.96;100.00;101227.28;4918356;29;20028;-75
2021/05/26 05:34:24;;;;;;;12.18;7.10;;;;;;;22.11;100.00;101229.06;4906525;29;20353;-75
2021/05/26 05:37:10;;;;;;;12.45;7.22;;;;;;;21.88;100.00;101234.88;4918866;29;20020;-75
2021/05/26 05:39:56;;;;;;;18.10;7.30;;;;;;;21.99;100.00;101232.44;4919336;29;20031;-75
2021/05/26 05:42:42;;;;;;;14.07;7.20;;;;;;;22.31;100.00;101228.78;4918725;29;20484;-75
2021/05/26 05:45:28;;;;;;;12.40;7.15;;;;;;;22.11;100.00;101237.09;4919044;29;20039;-75
2021/05/26 05:48:14;;;;;;;13.93;6.80;;;;;;;21.83;100.00;101246.75;4918984;29;20032;-74
2021/05/26 05:51:00;;;;;;;13.70;6.55;;;;;;;21.93;100.00;101258.59;4906681;29;20373;-76
2021/05/26 05:53:45;;;;;;;17.05;7.50;;;;;;;22.12;100.00;101251.31;4905738;29;20024;-76
2021/05/26 05:56:31;;;;;;;13.55;6.20;;;;;;;22.14;100.00;101252.09;4919172;29;20027;-76
2021/05/26 05:59:17;;;;;;;11.18;6.72;;;;;;;22.16;100.00;101260.84;4918813;29;20453;-75
2021/05/26 06:02:03;;;;;;;12.93;7.65;;;;;;;22.25;100.00;101274.56;4922498;29;20035;-74
2021/05/26 06:04:48;;;;;;;13.27;7.18;;;;;;;22.67;100.00;101273.94;4923548;29;20032;-75
2021/05/26 06:07:34;;;;;;;14.85;8.13;;;;;;;22.44;100.00;101275.22;4938501;29;20036;-74
2021/05/26 06:10:20;;;;;;;13.60;8.55;;;;;;;22.31;100.00;101268.00;4937733;29;20032;-73
2021/05/26 06:13:09;;;;;;;17.73;8.02;;;;;;;22.14;100.00;101274.28;4938916;29;20051;-73
2021/05/26 06:15:55;;;;;;;17.20;8.88;;;;;;;22.25;100.00;101263.88;4923500;29;20043;-75
2021/05/26 06:18:41;;;;;;;15.80;8.48;;;;;;;22.36;100.00;101261.47;4919488;29;20035;-75
2021/05/26 06:21:27;;;;;;;14.88;8.00;;;;;;;22.44;100.00;101263.69;4925064;29;20028;-75
2021/05/26 06:24:12;;;;;;;17.02;8.57;;;;;;;22.73;100.00;101265.53;4927182;29;20429;-74
2021/05/26 06:26:59;;;;;;;13.85;8.48;;;;;;;22.87;100.00;101255.75;4927877;29;20028;-74
2021/05/26 06:29:44;;;;;;;14.05;9.13;;;;;;;22.88;100.00;101264.66;4921199;29;20366;-74
2021/05/26 06:32:30;;;;;;;15.73;8.70;;;;;;;23.23;100.00;101280.31;4918978;29;20040;-75
2021/05/26 06:35:16;;;;;;;15.68;8.10;;;;;;;23.26;100.00;101273.91;4905928;29;20047;-76
2021/05/26 06:38:04;;;;;;;14.73;8.25;;;;;;;23.53;100.00;101272.22;4905503;29;20115;-76
2021/05/26 06:40:50;;;;;;;15.18;7.97;;;;;;;23.62;100.00;101277.00;4918383;29;20028;-76
2021/05/26 06:43:39;;;;;;;16.92;7.28;;;;;;;23.65;100.00;101279.50;4905789;29;20020;-77
2021/05/26 06:46:25;;;;;;;13.80;7.15;;;;;;;23.70;100.00;101281.91;4918682;29;20029;-77
2021/05/26 06:49:11;;;;;;;10.85;7.22;;;;;;;23.49;100.00;101300.13;4917688;29;20039;-77
2021/05/26 06:51:58;;;;;;;13.88;7.60;;;;;;;23.40;100.00;101292.66;4918415;29;20039;-77
2021/05/26 06:54:47;;;;;;;12.60;8.10;;;;;;;23.64;100.00;101284.94;4918516;29;20043;-76
2021/05/26 06:57:33;;;;;;;14.18;8.60;;;;;;;23.23;100.00;101283.00;4920676;29;20051;-77
2021/05/26 07:00:19;;;;;;;16.60;8.52;;;;;;;23.10;100.00;101291.81;4922368;29;20107;-77
2021/05/26 07:03:05;;;;;;;12.32;7.97;;;;;;;23.46;100.00;101283.41;4921843;29;20032;-76
2021/05/26 07:05:54;;;;;;;13.10;8.90;;;;;;;23.43;100.00;101281.78;4921934;29;20040;-76
2021/05/26 07:08:40;;;;;;;17.15;8.93;;;;;;;23.34;100.00;101288.56;4908809;29;20358;-76
2021/05/26 07:11:28;;;;;;;13.45;8.68;;;;;;;23.81;100.00;101284.72;4921603;29;20118;-77
2021/05/26 07:14:14;;;;;;;16.02;9.38;;;;;;;23.35;100.00;101286.75;4922506;29;20036;-76
2021/05/26 07:17:07;;;;;;;12.10;8.15;;;;;;;23.72;100.00;101280.84;4922435;29;20054;-77
2021/05/26 07:19:53;;;;;;;13.05;9.48;;;;;;;23.51;100.00;101290.22;4921419;29;20032;-76
2021/05/26 07:22:39;;;;;;;14.02;9.52;;;;;;;23.59;100.00;101287.91;4921623;29;20461;-75
2021/05/26 07:25:25;;;;;;;12.35;9.27;;;;;;;23.61;100.00;101286.00;4921160;29;20050;-76
2021/05/26 07:28:12;;;;;;;15.05;9.73;;;;;;;23.57;100.00;101286.25;4909299;29;20028;-77
2021/05/26 07:30:58;;;;;;;16.13;9.38;;;;;;;23.99;100.00;101284.47;4921552;29;20537;-77
2021/05/26 07:33:45;;;;;;;13.38;9.18;;;;;;;24.44;100.00;101286.88;4908315;29;20035;-77
2021/05/26 07:36:34;;;;;;;11.90;8.48;;;;;;;24.35;100.00;101278.56;4908081;29;20028;-78
2021/05/26 07:39:20;;;;;;;10.13;7.88;;;;;;;24.68;100.00;101287.97;4921269;29;20476;-77
2021/05/26 07:42:08;;;;;;;11.18;7.78;;;;;;;24.98;100.00;101279.66;4921379;29;20032;-77
2021/05/26 07:44:54;;;;;;;12.48;8.85;;;;;;;25.04;100.00;101274.72;4921346;29;20414;-77
2021/05/26 07:47:40;;;;;;;10.25;8.18;;;;;;;24.97;100.00;101273.44;4908657;29;20032;-77
2021/05/26 07:50:26;;;;;;;10.02;8.55;;;;;;;25.10;100.00;101277.00;4920858;29;20028;-77
2021/05/26 07:53:12;;;;;;;11.77;8.45;;;;;;;25.56;100.00;101278.22;4908068;29;20036;-76
2021/05/26 07:55:58;;;;;;;12.25;6.95;;;;;;;25.78;100.00;101277.56;4907853;29;20035;-76
2021/05/26 07:58:44;;;;;;;13.68;8.10;;;;;;;25.54;100.00;101272.13;4920848;29;20099;-77
2021/05/26 08:01:29;;;;;;;11.88;7.68;;;;;;;25.40;100.00;101274.91;4920595;29;20041;-77
2021/05/26 08:04:15;;;;;;;10.73;7.82;;;;;;;25.40;100.00;101269.53;4920889;29;20446;-77
2021/05/26 08:07:01;;;;;;;12.32;7.43;;;;;;;26.07;100.00;101284.41;4907642;29;20446;-76
2021/05/26 08:09:47;;;;;;;11.00;7.15;;;;;;;25.64;100.00;101275.03;4919904;29;20028;-76
2021/05/26 08:12:33;;;;;;;8.73;7.10;;;;;;;26.18;100.00;101273.75;4920231;29;20470;-76
2021/05/26 08:15:19;;;;;;;9.95;7.28;;;;;;;26.44;100.00;101278.06;4907903;29;20070;-76
2021/05/26 08:18:05;;;;;;;10.10;6.55;;;;;;;26.16;100.00;101278.38;4907713;29;20078;-77
2021/05/26 08:20:51;;;;;;;10.10;6.35;;;;;;;26.01;100.00;101275.00;4920088;29;20050;-78
2021/05/26 08:23:41;;;;;;;7.30;5.90;;;;;;;25.71;100.00;101273.59;4921690;29;20028;-77
2021/05/26 08:26:26;;;;;;;8.20;6.45;;;;;;;25.91;100.00;101283.75;4920597;29;20039;-77
2021/05/26 09:32:36;;;;;;;6.75;3.50;;;;;;;27.42;100.00;101271.38;5980505;23;20028;-78
2021/05/26 09:35:22;;;;;;;7.43;3.55;;;;;;;27.56;100.00;101268.44;4900351;29;20056;-77
2021/05/26 09:38:08;;;;;;;5.13;3.80;;;;;;;27.92;100.00;101270.94;4900090;29;20028;-78
2021/05/26 09:40:54;;;;;;;6.18;3.17;;;;;;;27.83;100.00;101263.59;4899362;29;20446;-77
2021/05/26 09:43:48;;;;;;;8.98;3.70;;;;;;;28.25;100.00;101265.47;4900239;29;20032;-77
2021/05/26 09:46:36;;;;;;;5.28;3.30;;;;;;;27.93;100.00;101263.72;4900115;29;20502;-77
2021/05/26 09:49:23;;;;;;;4.00;3.60;;;;;;;27.38;100.00;101264.53;4899265;29;20044;-77
2021/05/26 09:52:11;;;;;;;8.80;4.25;;;;;;;27.86;100.00;101262.50;4900384;29;20025;-77
2021/05/26 09:54:56;;;;;;;6.10;3.50;;;;;;;27.19;100.00;101259.69;4886735;29;20123;-78
2021/05/26 09:57:49;;;;;;;5.43;3.53;;;;;;;27.88;100.00;101255.16;4899538;29;20135;-78
2021/05/26 10:00:43;;;;;;;11.65;4.10;;;;;;;27.60;100.00;101256.44;4900521;29;20028;-78
2021/05/26 10:03:30;;;;;;;4.72;3.60;;;;;;;27.73;100.00;101259.03;4901393;29;20028;-77
2021/05/26 10:06:15;;;;;;;12.90;3.55;;;;;;;28.01;98.96;101258.56;4899561;29;20037;-77
2021/05/26 10:09:03;;;;;;;7.70;3.65;;;;;;;28.25;98.05;101260.09;4887150;29;20036;-78
2021/05/26 10:11:55;;;;;;;7.93;3.60;;;;;;;27.95;100.00;101259.03;4899827;29;20032;-76
2021/05/26 10:14:44;;;;;;;6.38;3.53;;;;;;;27.98;97.54;101256.09;4899382;29;20036;-76
2021/05/26 10:17:35;;;;;;;6.20;3.47;;;;;;;28.24;100.00;101252.16;4900109;29;20522;-77
2021/05/26 10:20:26;;;;;;;6.47;4.10;;;;;;;27.12;100.00;101257.56;4899344;29;20357;-77
2021/05/26 10:23:18;;;;;;;8.48;4.20;;;;;;;28.17;99.32;101246.41;4899373;29;20028;-77
2021/05/26 10:26:03;;;;;;;6.70;4.43;;;;;;;28.49;95.68;101246.47;4899038;29;20104;-77
2021/05/26 10:28:49;;;;;;;7.82;4.45;;;;;;;28.25;99.13;101248.47;4899761;29;20362;-76
2021/05/26 10:31:36;;;;;;;9.05;4.40;;;;;;;27.64;100.00;101243.63;4898993;29;20028;-77
2021/05/26 10:34:42;;;;;;;10.13;5.35;;;;;;;27.40;100.00;101238.34;4886394;29;20080;-77
2021/05/26 10:37:33;;;;;;;11.10;5.70;;;;;;;27.15;100.00;101238.50;4896586;29;20064;-77
2021/05/26 10:40:22;;;;;;;8.75;4.85;;;;;;;27.84;100.00;101246.44;4899442;29;20040;-77
2021/05/26 10:43:14;;;;;;;7.55;5.18;;;;;;;27.90;100.00;101237.03;4886260;29;20469;-77
2021/05/26 10:46:03;;;;;;;7.47;4.78;;;;;;;28.27;100.00;101231.19;4898842;29;20048;-77
2021/05/26 10:48:53;;;;;;;8.65;4.40;;;;;;;28.44;100.00;101240.63;4886215;29;20040;-77
2021/05/26 10:51:54;;;;;;;8.18;5.05;;;;;;;28.29;100.00;101240.00;4886021;29;20446;-77
2021/05/26 10:54:53;;;;;;;10.10;4.80;;;;;;;27.90;100.00;101235.19;4886073;29;20096;-77
2021/05/26 10:58:16;;;;;;;8.52;6.00;;;;;;;27.66;100.00;101226.38;4886414;29;20395;-76
2021/05/26 11:01:05;;;;;;;9.25;5.25;;;;;;;28.43;100.00;101220.00;4898666;29;20501;-78
2021/05/26 11:03:51;;;;;;;8.23;5.45;;;;;;;28.76;100.00;101219.88;4899188;29;20065;-78
2021/05/26 11:06:37;;;;;;;13.68;6.70;;;;;;;28.69;100.00;101210.59;4898469;29;20029;-78
2021/05/26 11:10:02;;;;;;;8.82;5.60;;;;;;;27.98;100.00;101207.63;4885978;29;20104;-78
2021/05/26 11:12:56;;;;;;;9.68;6.40;;;;;;;28.66;100.00;101206.31;4899104;29;20398;-78
2021/05/26 11:15:44;;;;;;;11.20;7.05;;;;;;;28.30;100.00;101200.44;4898601;29;20040;-77
2021/05/26 11:18:31;;;;;;;9.32;6.72;;;;;;;28.66;100.00;101200.94;4886621;29;20037;-77
2021/05/26 11:21:17;;;;;;;10.68;6.20;;;;;;;28.76;100.00;101195.63;4885837;29;20043;-77
2021/05/26 11:24:03;;;;;;;6.43;5.65;;;;;;;28.92;100.00;101202.25;4885862;29;20488;-77
2021/05/26 11:26:49;;;;;;;10.85;6.28;;;;;;;29.42;98.59;101209.53;4898531;29;20036;-77
2021/05/26 11:29:38;;;;;;;8.95;6.30;;;;;;;29.34;97.95;101195.00;4898199;29;20097;-77
2021/05/26 11:32:25;;;;;;;8.02;6.95;;;;;;;29.34;97.74;101200.41;4885979;29;20112;-77
2021/05/26 11:35:12;;;;;;;13.05;7.75;;;;;;;29.49;95.06;101193.66;4885853;29;20039;-77
2021/05/26 11:37:58;;;;;;;8.77;6.32;;;;;;;29.33;97.90;101191.44;4885745;29;20029;-76
2021/05/26 11:40:44;;;;;;;11.55;7.18;;;;;;;28.41;100.00;101189.59;4898894;29;20255;-77
2021/05/26 11:43:31;;;;;;;11.30;8.18;;;;;;;29.53;96.29;101187.81;4899171;29;20088;-77
2021/05/26 11:46:17;;;;;;;11.55;7.95;;;;;;;29.04;98.71;101189.56;4889533;29;20032;-77
2021/05/26 11:49:10;;;;;;;11.55;8.00;;;;;;;29.09;98.11;101188.16;4888792;29;20119;-76
2021/05/26 11:52:10;;;;;;;10.90;7.75;;;;;;;28.76;99.94;101176.72;4889307;29;20127;-77
2021/05/26 11:55:02;;;;;;;9.20;6.85;;;;;;;28.90;99.85;101179.09;4901831;29;20036;-77
2021/05/26 11:57:55;;;;;;;13.82;7.68;;;;;;;28.29;100.00;101167.22;4889685;29;20052;-76
2021/05/26 12:00:41;;;;;;;11.43;7.57;;;;;;;28.38;100.00;101171.84;4889275;29;20061;-77
2021/05/26 12:03:30;;;;;;;14.02;7.25;;;;;;;28.62;100.00;101175.22;4889124;29;20032;-76
2021/05/26 12:06:23;;;;;;;15.50;8.50;;;;;;;28.26;100.00;101167.50;4901793;29;20469;-77
2021/05/26 12:09:32;;;;;;;9.98;6.10;;;;;;;29.00;99.10;101164.69;4901886;29;20123;-77
2021/05/26 12:12:18;;;;;;;11.48;7.43;;;;;;;29.46;96.51;101162.38;4889216;29;20073;-77
2021/05/26 12:15:04;;;;;;;12.43;6.47;;;;;;;29.25;96.16;101166.13;4901611;29;20057;-77
2021/05/26 12:17:51;;;;;;;9.70;6.80;;;;;;;28.41;100.00;101163.50;4889456;29;20028;-78
2021/05/26 12:20:43;;;;;;;8.13;5.28;;;;;;;29.30;96.61;101164.72;4901924;29;20063;-78
2021/05/26 12:23:43;;;;;;;8.43;6.03;;;;;;;29.30;94.20;101161.16;4901772;29;20029;-78
2021/05/26 12:26:37;;;;;;;9.38;6.18;;;;;;;29.21;93.43;101160.09;4901834;29;20039;-78
2021/05/26 12:29:24;;;;;;;11.05;5.80;;;;;;;29.86;91.02;101155.09;4901631;29;20043;-78
2021/05/26 12:32:24;;;;;;;10.93;6.80;;;;;;;29.61;92.26;101152.91;4901843;29;20040;-78
2021/05/26 12:35:28;;;;;;;9.55;6.88;;;;;;;29.15;95.03;101149.88;4901794;29;20036;-78
2021/05/26 12:38:20;;;;;;;8.73;7.22;;;;;;;28.58;98.46;101130.59;4902926;29;20524;-79
2021/05/26 12:41:39;;;;;;;15.55;7.80;;;;;;;28.73;98.45;101134.66;4921925;29;20100;-78
2021/05/26 12:44:25;;;;;;;7.97;5.88;;;;;;;29.03;96.18;101136.59;4895081;29;20092;-77
2021/05/26 12:47:14;;;;;;;12.13;6.03;;;;;;;29.36;94.21;101130.91;4906830;29;20033;-77
2021/05/26 12:50:39;;;;;;;13.77;5.97;;;;;;;29.59;92.38;101127.91;4911990;29;20032;-78
2021/05/26 12:53:33;;;;;;;11.73;6.45;;;;;;;29.68;92.49;101127.06;4867480;29;20039;-78
2021/05/26 12:56:26;;;;;;;8.50;5.78;;;;;;;28.79;97.36;101126.06;4903065;29;20451;-78
2021/05/26 12:59:12;;;;;;;12.15;6.10;;;;;;;29.17;96.33;101120.03;4907488;29;20028;-77
2021/05/26 13:02:13;;;;;;;7.10;5.45;;;;;;;29.69;93.61;101111.72;4905192;29;20032;-75
2021/05/26 13:04:59;;;;;;;7.82;5.68;;;;;;;29.45;94.35;101112.03;4909302;29;20319;-75
2021/05/26 13:07:47;;;;;;;11.07;6.13;;;;;;;29.44;93.89;101104.06;4904895;29;20028;-77
2021/05/26 13:10:35;;;;;;;9.02;6.82;;;;;;;29.74;92.08;101095.94;4888726;29;20043;-78
2021/05/26 13:13:30;;;;;;;13.80;7.70;;;;;;;30.18;87.73;101092.75;4887843;29;20029;-78
2021/05/26 13:16:20;;;;;;;12.98;5.55;;;;;;;29.91;87.80;101093.41;4900883;29;20028;-78
2021/05/26 13:19:05;;;;;;;9.55;5.47;;;;;;;29.75;88.55;101101.22;4900294;29;20123;-78
2021/05/26 13:21:53;;;;;;;6.93;5.43;;;;;;;29.41;92.42;101105.19;4887599;29;20072;-78
2021/05/26 13:24:39;;;;;;;8.77;6.82;;;;;;;29.57;89.23;101094.75;4900346;29;20037;-78
2021/05/26 13:27:24;;;;;;;10.75;7.20;;;;;;;29.03;93.91;101096.97;4899838;29;20489;-78
2021/05/26 13:30:11;;;;;;;8.75;6.70;;;;;;;29.28;91.83;101096.50;4900333;29;20036;-78
2021/05/26 13:32:57;;;;;;;13.80;6.78;;;;;;;29.52;92.52;101090.72;4887321;29;20131;-77
2021/05/26 13:35:44;;;;;;;12.95;7.95;;;;;;;29.54;93.60;101091.47;4887659;29;20040;-78
2021/05/26 13:38:30;;;;;;;10.70;7.15;;;;;;;30.05;90.86;101084.88;4887281;29;20029;-78
2021/05/26 13:41:16;;;;;;;12.10;6.60;;;;;;;29.98;89.99;101085.59;4887915;29;20103;-78
2021/05/26 13:44:02;;;;;;;7.57;6.65;;;;;;;29.69;91.36;101079.31;4899751;29;20029;-78
2021/05/26 13:46:48;;;;;;;10.45;7.10;;;;;;;29.13;99.83;101088.91;4900457;29;20100;-77
2021/05/26 13:49:33;;;;;;;10.05;7.25;;;;;;;29.39;100.00;101090.13;4899226;29;20044;-78
2021/05/26 13:52:19;;;;;;;10.52;7.85;;;;;;;28.94;100.00;101089.66;4887342;29;20032;-78
2021/05/26 13:55:06;;;;;;;11.13;7.78;;;;;;;29.52;100.00;101083.50;4899986;29;20032;-76